Time;durP1;ratioP1;P1;durP2;ratioP2;P2;SDS_P1;SDS_P2;PMS_P1;PMS_P2;Temp;Humidity;BMP_temperature;BMP_pressure;BME280_temperature;BME280_humidity;BME280_pressure;Samples;Min_cycle;Max_cycle;Signal;HPM_P1;HPM_P2
2023/06/29 00:00:15;;;;;;;8.45;3.00;;;19.60;99.90;;;;;;5078516;28;20040;-70
2023/06/29 00:02:41;;;;;;;4.03;2.50;;;19.60;99.90;;;;;;5079358;28;20021;-70
2023/06/29 00:05:08;;;;;;;5.05;2.83;;;19.60;99.90;;;;;;5078606;28;20020;-70
2023/06/29 00:07:34;;;;;;;3.50;2.35;;;19.50;99.90;;;;;;5078482;28;20108;-70
2023/06/29 00:10:00;;;;;;;6.88;2.38;;;19.60;99.90;;;;;;5078658;28;20028;-70
2023/06/29 00:12:26;;;;;;;7.75;2.90;;;19.60;99.90;;;;;;5078528;28;20013;-70
2023/06/29 00:14:52;;;;;;;4.72;3.00;;;19.50;99.90;;;;;;5078262;28;20060;-70
2023/06/29 00:17:17;;;;;;;4.55;2.80;;;19.40;99.90;;;;;;5078420;28;20071;-70
2023/06/29 00:19:43;;;;;;;6.45;2.67;;;19.50;99.90;;;;;;5078444;28;20017;-70
2023/06/29 00:22:09;;;;;;;4.68;2.78;;;19.70;99.90;;;;;;5078470;28;20025;-70
2023/06/29 00:24:42;;;;;;;3.70;2.35;;;19.80;99.90;;;;;;5078284;28;20035;-70
2023/06/29 00:27:09;;;;;;;4.35;2.90;;;19.80;99.90;;;;;;5078112;28;20050;-70
2023/06/29 00:29:35;;;;;;;4.32;3.00;;;19.70;99.90;;;;;;5078141;28;20024;-70
2023/06/29 00:32:01;;;;;;;5.50;2.80;;;19.50;99.90;;;;;;5078210;28;20113;-70
2023/06/29 00:34:26;;;;;;;5.15;2.95;;;19.30;99.90;;;;;;5078677;28;20075;-70
2023/06/29 00:36:52;;;;;;;5.63;3.10;;;19.10;99.90;;;;;;5077859;28;20033;-70
2023/06/29 00:39:18;;;;;;;2.40;2.13;;;19.10;99.90;;;;;;5078152;28;20077;-70
2023/06/29 00:41:43;;;;;;;5.43;2.97;;;19.00;99.90;;;;;;5078079;28;20119;-70
2023/06/29 00:44:09;;;;;;;6.30;3.30;;;19.00;99.90;;;;;;5077971;28;20028;-70
2023/06/29 00:46:34;;;;;;;5.55;3.00;;;19.10;99.90;;;;;;5077822;28;20025;-70
2023/06/29 00:49:00;;;;;;;8.82;3.50;;;19.10;99.90;;;;;;5077571;28;20020;-70
2023/06/29 00:51:26;;;;;;;8.43;3.55;;;19.10;99.90;;;;;;5078147;28;20027;-70
2023/06/29 00:53:51;;;;;;;3.88;3.05;;;19.00;99.90;;;;;;5077825;28;20032;-70
2023/06/29 00:56:17;;;;;;;3.85;2.97;;;19.10;99.90;;;;;;5077749;28;20028;-70
2023/06/29 00:58:43;;;;;;;4.50;3.53;;;19.10;99.90;;;;;;5078227;28;20028;-70
2023/06/29 01:01:09;;;;;;;7.07;2.90;;;19.10;99.90;;;;;;5077530;28;20024;-70
2023/06/29 01:03:36;;;;;;;4.25;3.05;;;19.00;99.90;;;;;;5078085;28;20037;-70
2023/06/29 01:06:06;;;;;;;5.55;2.88;;;19.00;99.90;;;;;;5077483;28;20051;-70
2023/06/29 01:08:37;;;;;;;4.28;3.15;;;19.10;99.90;;;;;;5077194;28;20115;-70
2023/06/29 01:11:03;;;;;;;3.65;2.83;;;19.20;99.90;;;;;;5077162;28;20028;-71
2023/06/29 01:13:31;;;;;;;4.63;2.60;;;19.20;99.90;;;;;;5077793;28;20029;-70
2023/06/29 01:15:59;;;;;;;4.38;2.90;;;19.30;99.90;;;;;;5077834;28;20028;-70
2023/06/29 01:18:27;;;;;;;6.07;3.05;;;19.40;99.90;;;;;;5077370;28;20119;-70
2023/06/29 01:20:53;;;;;;;4.45;2.35;;;19.20;99.90;;;;;;5077244;28;20032;-70
2023/06/29 01:23:26;;;;;;;7.35;3.17;;;19.20;99.90;;;;;;5077161;28;20065;-70
2023/06/29 01:25:54;;;;;;;3.60;2.67;;;19.20;99.90;;;;;;5077736;28;20111;-70
2023/06/29 01:28:20;;;;;;;5.18;2.60;;;19.10;99.90;;;;;;5077003;28;20020;-70
2023/06/29 01:30:49;;;;;;;5.63;2.85;;;19.00;99.90;;;;;;5077084;28;20027;-70
2023/06/29 01:33:17;;;;;;;4.32;3.00;;;18.90;99.90;;;;;;5076568;28;20024;-70
2023/06/29 01:35:44;;;;;;;6.32;2.83;;;18.80;99.90;;;;;;5076771;28;20075;-71
2023/06/29 01:38:20;;;;;;;7.03;2.65;;;18.80;99.90;;;;;;5077577;28;20017;-71
2023/06/29 01:40:49;;;;;;;6.60;2.72;;;18.70;99.90;;;;;;5077407;28;20028;-70
2023/06/29 01:43:17;;;;;;;6.88;3.45;;;18.60;99.90;;;;;;5076656;28;20086;-70
2023/06/29 01:45:44;;;;;;;3.72;3.05;;;18.80;99.90;;;;;;5077324;28;20062;-70
2023/06/29 01:48:11;;;;;;;6.18;3.40;;;18.70;99.90;;;;;;5076643;28;20021;-70
2023/06/29 01:50:37;;;;;;;4.07;2.63;;;18.80;99.90;;;;;;5076742;28;20074;-70
2023/06/29 01:53:03;;;;;;;5.60;3.67;;;18.90;99.90;;;;;;5076674;28;20035;-70
2023/06/29 01:55:28;;;;;;;6.43;3.15;;;19.00;99.90;;;;;;5076351;28;20029;-70
2023/06/29 01:57:54;;;;;;;4.28;2.50;;;19.00;99.90;;;;;;5076842;28;20024;-70
2023/06/29 02:00:20;;;;;;;5.43;2.75;;;18.80;99.90;;;;;;5076563;28;20021;-70
2023/06/29 02:02:46;;;;;;;4.20;2.70;;;18.70;99.90;;;;;;5076735;28;20047;-70
2023/06/29 02:05:12;;;;;;;3.72;2.85;;;18.60;99.90;;;;;;5076349;28;20024;-70
2023/06/29 02:07:37;;;;;;;6.40;3.60;;;18.50;99.90;;;;;;5076296;28;20140;-70
2023/06/29 02:10:03;;;;;;;3.47;2.65;;;18.40;99.90;;;;;;5076519;28;20021;-70
2023/06/29 02:12:30;;;;;;;5.30;2.88;;;18.40;99.90;;;;;;5076470;28;20111;-70
2023/06/29 02:14:55;;;;;;;3.35;2.70;;;18.40;99.90;;;;;;5076338;28;20029;-70
2023/06/29 02:17:21;;;;;;;6.07;3.38;;;18.40;99.90;;;;;;5076464;28;20031;-70
2023/06/29 02:19:47;;;;;;;6.10;2.60;;;18.40;99.90;;;;;;5076246;28;20029;-70
2023/06/29 02:22:12;;;;;;;4.03;3.20;;;18.40;99.90;;;;;;5076296;28;20031;-70
2023/06/29 02:24:38;;;;;;;3.70;3.08;;;18.30;99.90;;;;;;5076329;28;20047;-70
2023/06/29 02:27:03;;;;;;;4.22;3.40;;;18.30;99.90;;;;;;5076284;28;20021;-70
2023/06/29 02:29:29;;;;;;;8.57;3.47;;;18.20;99.90;;;;;;5075929;28;20025;-70
2023/06/29 02:31:54;;;;;;;6.07;3.72;;;18.20;99.90;;;;;;5077113;28;20044;-70
2023/06/29 02:34:20;;;;;;;5.40;3.53;;;18.10;99.90;;;;;;5076266;28;20032;-70
2023/06/29 02:36:45;;;;;;;5.13;3.40;;;18.10;99.90;;;;;;5075798;28;20115;-70
2023/06/29 02:39:11;;;;;;;6.13;3.60;;;18.20;99.90;;;;;;5076561;28;20110;-70
2023/06/29 02:41:36;;;;;;;4.53;3.10;;;18.20;99.90;;;;;;5076316;28;20020;-70
2023/06/29 02:44:02;;;;;;;9.57;3.53;;;18.20;99.90;;;;;;5075735;28;20029;-70
2023/06/29 02:46:28;;;;;;;5.30;3.42;;;18.30;99.90;;;;;;5075667;28;20025;-70
2023/06/29 02:48:53;;;;;;;4.82;3.25;;;18.20;99.90;;;;;;5076230;28;20059;-70
2023/06/29 02:51:19;;;;;;;8.63;3.38;;;18.00;99.90;;;;;;5076246;28;20082;-70
2023/06/29 02:53:45;;;;;;;4.38;3.10;;;17.90;99.90;;;;;;5076133;28;20040;-70
2023/06/29 02:56:10;;;;;;;5.97;3.03;;;17.80;99.90;;;;;;5076724;28;20087;-70
2023/06/29 02:58:36;;;;;;;4.28;3.45;;;17.80;99.90;;;;;;5076040;28;20092;-70
2023/06/29 03:01:01;;;;;;;5.60;3.33;;;17.80;99.90;;;;;;5076212;28;20052;-70
2023/06/29 03:03:27;;;;;;;6.30;3.10;;;17.90;99.90;;;;;;5076187;28;20024;-70
2023/06/29 03:05:52;;;;;;;6.03;2.75;;;18.00;99.90;;;;;;5075858;28;20137;-70
2023/06/29 03:08:18;;;;;;;3.88;3.22;;;18.10;99.90;;;;;;5075766;28;20027;-70
2023/06/29 03:10:44;;;;;;;8.32;3.38;;;18.20;99.90;;;;;;5075893;28;20067;-70
2023/06/29 03:13:09;;;;;;;7.45;3.05;;;18.20;99.90;;;;;;5076362;28;20021;-70
2023/06/29 03:15:35;;;;;;;7.32;3.35;;;18.20;99.90;;;;;;5076208;28;20025;-70
2023/06/29 03:18:00;;;;;;;6.38;3.80;;;18.20;99.90;;;;;;5075839;28;20021;-70
2023/06/29 03:20:26;;;;;;;4.78;3.42;;;18.20;99.90;;;;;;5076150;28;20025;-70
2023/06/29 03:22:51;;;;;;;5.15;3.42;;;18.10;99.90;;;;;;5076267;28;20035;-70
2023/06/29 03:25:17;;;;;;;3.88;3.33;;;18.00;99.90;;;;;;5075269;28;20029;-70
2023/06/29 03:27:42;;;;;;;9.35;3.53;;;17.90;99.90;;;;;;5075448;28;20020;-70
2023/06/29 03:30:08;;;;;;;7.60;3.83;;;17.90;99.90;;;;;;5075653;28;20089;-70
2023/06/29 03:32:34;;;;;;;4.25;3.13;;;17.80;99.90;;;;;;5076347;28;20020;-70
2023/06/29 03:34:59;;;;;;;8.25;3.47;;;17.80;99.90;;;;;;5079221;28;20025;-70
2023/06/29 03:37:25;;;;;;;4.78;3.28;;;17.80;99.90;;;;;;5078844;28;20043;-70
2023/06/29 03:39:50;;;;;;;7.00;3.83;;;17.80;99.90;;;;;;5079218;28;20021;-70
2023/06/29 03:42:16;;;;;;;8.77;3.70;;;17.90;99.90;;;;;;5079705;28;20031;-70
2023/06/29 03:44:42;;;;;;;5.53;3.45;;;17.80;99.90;;;;;;5078745;28;20107;-70
2023/06/29 03:47:07;;;;;;;4.00;3.22;;;17.80;99.90;;;;;;5079066;28;20129;-70
2023/06/29 03:49:33;;;;;;;5.60;3.22;;;17.80;99.90;;;;;;5079671;28;20021;-70
2023/06/29 03:51:59;;;;;;;7.50;3.38;;;17.80;99.90;;;;;;5078963;28;20024;-70
2023/06/29 03:54:26;;;;;;;4.75;3.65;;;17.90;99.90;;;;;;5078865;28;20034;-70
2023/06/29 03:56:52;;;;;;;5.18;3.15;;;17.90;99.90;;;;;;5079524;28;20025;-70
2023/06/29 03:59:17;;;;;;;4.97;3.30;;;17.90;99.90;;;;;;5078791;28;20025;-70
2023/06/29 04:01:43;;;;;;;11.40;3.58;;;17.70;99.90;;;;;;5078776;28;20051;-70
2023/06/29 04:04:08;;;;;;;6.90;3.40;;;17.80;99.90;;;;;;5078967;28;20020;-70
2023/06/29 04:06:34;;;;;;;5.35;3.30;;;17.80;99.90;;;;;;5078749;28;20021;-70
2023/06/29 04:09:00;;;;;;;6.88;3.50;;;17.80;99.90;;;;;;5079257;28;20097;-70
2023/06/29 04:11:26;;;;;;;5.95;3.97;;;17.70;99.90;;;;;;5078890;28;20025;-70
2023/06/29 04:13:51;;;;;;;7.05;3.92;;;17.70;99.90;;;;;;5078677;28;20032;-70
2023/06/29 04:16:17;;;;;;;7.53;3.80;;;17.60;99.90;;;;;;5079297;28;20020;-71
2023/06/29 04:18:43;;;;;;;10.10;3.92;;;17.60;99.90;;;;;;5078291;28;20020;-70
2023/06/29 04:21:09;;;;;;;6.82;4.10;;;17.70;99.90;;;;;;5078437;28;20061;-70
2023/06/29 04:23:34;;;;;;;6.10;3.30;;;17.60;99.90;;;;;;5078451;28;20102;-70
2023/06/29 04:26:02;;;;;;;5.28;3.97;;;17.40;99.90;;;;;;5078038;28;20017;-70
2023/06/29 04:28:29;;;;;;;5.90;3.75;;;17.30;99.90;;;;;;5078297;28;20055;-70
2023/06/29 04:30:54;;;;;;;5.38;3.88;;;17.30;99.90;;;;;;5078290;28;20016;-70
2023/06/29 04:33:21;;;;;;;8.38;3.75;;;17.40;99.90;;;;;;5078147;28;20028;-70
2023/06/29 04:35:46;;;;;;;10.23;4.47;;;17.50;99.90;;;;;;5077746;28;20036;-70
2023/06/29 04:38:17;;;;;;;6.65;3.88;;;17.60;99.90;;;;;;5091392;22;20120;-69
2023/06/29 04:40:43;;;;;;;6.93;3.80;;;17.60;99.90;;;;;;5077953;28;20027;-69
2023/06/29 04:43:09;;;;;;;6.63;4.43;;;17.50;99.90;;;;;;5077699;28;20029;-69
2023/06/29 04:45:35;;;;;;;5.10;3.70;;;17.40;99.90;;;;;;5077296;28;20028;-69
2023/06/29 04:48:01;;;;;;;9.48;4.28;;;17.40;99.90;;;;;;5077922;28;20035;-69
2023/06/29 04:50:31;;;;;;;9.25;4.30;;;17.60;99.90;;;;;;5078470;28;20028;-69
2023/06/29 04:52:58;;;;;;;15.57;4.50;;;17.50;99.90;;;;;;5077536;28;20016;-70
2023/06/29 04:55:25;;;;;;;6.22;3.72;;;17.50;99.90;;;;;;5077430;28;20021;-70
2023/06/29 04:57:51;;;;;;;5.35;4.00;;;17.60;99.90;;;;;;5077658;28;20064;-70
2023/06/29 05:00:19;;;;;;;5.97;3.90;;;17.90;99.90;;;;;;5077529;28;20025;-70
2023/06/29 05:02:45;;;;;;;5.40;3.78;;;18.00;99.90;;;;;;5077272;28;20017;-70
2023/06/29 05:05:11;;;;;;;6.60;4.53;;;18.00;99.90;;;;;;5077200;28;20073;-70
2023/06/29 05:07:41;;;;;;;6.07;4.40;;;18.10;99.90;;;;;;5077142;28;20021;-70
2023/06/29 05:10:07;;;;;;;6.78;4.00;;;18.20;99.90;;;;;;5077971;28;20017;-70
2023/06/29 05:12:32;;;;;;;7.30;4.43;;;18.30;99.90;;;;;;5078256;28;20021;-70
2023/06/29 05:14:58;;;;;;;7.75;5.20;;;17.90;99.90;;;;;;5077420;28;20031;-70
2023/06/29 05:17:23;;;;;;;10.02;5.05;;;17.60;99.90;;;;;;5077398;28;20025;-70
2023/06/29 05:19:49;;;;;;;8.60;4.60;;;17.50;99.90;;;;;;5078187;28;20086;-70
2023/06/29 05:22:15;;;;;;;6.53;4.53;;;17.60;99.90;;;;;;5077450;28;20040;-70
2023/06/29 05:24:45;;;;;;;6.90;4.80;;;17.80;99.90;;;;;;5076777;28;20043;-70
2023/06/29 05:27:10;;;;;;;6.82;4.60;;;18.10;99.90;;;;;;5077442;28;20027;-70
2023/06/29 05:29:37;;;;;;;7.07;5.03;;;18.10;99.90;;;;;;5076722;28;20020;-70
2023/06/29 05:32:03;;;;;;;7.28;4.75;;;17.90;99.90;;;;;;5077694;28;20017;-70
2023/06/29 05:34:29;;;;;;;12.77;5.32;;;17.80;99.90;;;;;;5077953;28;20031;-70
2023/06/29 05:36:54;;;;;;;9.07;4.70;;;17.90;99.90;;;;;;5076547;28;20030;-70
2023/06/29 05:39:20;;;;;;;6.72;4.43;;;18.00;99.90;;;;;;5076741;28;20028;-70
2023/06/29 05:41:45;;;;;;;8.00;4.28;;;18.40;99.90;;;;;;5077546;28;20093;-70
2023/06/29 05:44:11;;;;;;;8.57;4.78;;;18.70;99.90;;;;;;5077102;28;20036;-70
2023/06/29 05:46:36;;;;;;;7.57;4.53;;;18.70;99.90;;;;;;5076533;28;20028;-70
2023/06/29 05:49:03;;;;;;;9.85;4.80;;;18.90;99.90;;;;;;5077392;28;20028;-70
2023/06/29 05:51:28;;;;;;;9.18;4.40;;;18.90;99.90;;;;;;5076820;28;20016;-70
2023/06/29 05:53:55;;;;;;;8.38;4.22;;;19.00;99.90;;;;;;5076650;28;20043;-70
2023/06/29 05:56:20;;;;;;;9.73;5.25;;;19.10;99.90;;;;;;5075973;28;20029;-70
2023/06/29 05:58:46;;;;;;;10.88;3.72;;;19.20;99.90;;;;;;5076626;28;20116;-70
2023/06/29 06:01:12;;;;;;;6.35;4.50;;;19.30;99.90;;;;;;5076220;28;20033;-70
2023/06/29 06:03:38;;;;;;;6.50;3.80;;;19.50;99.90;;;;;;5076302;28;20021;-70
2023/06/29 06:06:04;;;;;;;6.45;4.03;;;19.70;99.90;;;;;;5076457;28;20084;-70
2023/06/29 06:08:29;;;;;;;13.23;4.88;;;19.60;99.90;;;;;;5076270;28;20024;-70
2023/06/29 06:10:55;;;;;;;8.68;3.90;;;19.70;99.90;;;;;;5076615;28;20115;-70
2023/06/29 06:13:21;;;;;;;8.15;4.32;;;19.70;99.90;;;;;;5076140;28;20024;-70
2023/06/29 06:15:46;;;;;;;9.30;4.13;;;19.90;99.90;;;;;;5077377;28;20031;-70
2023/06/29 06:18:13;;;;;;;6.68;4.07;;;19.90;99.90;;;;;;5077106;28;20051;-70
2023/06/29 06:20:38;;;;;;;9.75;4.40;;;19.90;99.90;;;;;;5076161;28;20115;-70
2023/06/29 06:23:04;;;;;;;8.43;4.00;;;19.90;99.90;;;;;;5076373;28;20123;-70
2023/06/29 06:25:29;;;;;;;6.45;3.70;;;19.90;99.90;;;;;;5076017;28;20078;-70
2023/06/29 06:27:55;;;;;;;5.55;3.72;;;20.00;99.90;;;;;;5076975;28;20052;-70
2023/06/29 06:30:23;;;;;;;5.50;3.60;;;20.00;99.90;;;;;;5077074;28;20017;-70
2023/06/29 06:32:49;;;;;;;8.98;4.05;;;20.20;99.90;;;;;;5076941;28;20023;-70
2023/06/29 06:35:16;;;;;;;7.47;3.70;;;20.20;99.90;;;;;;5075951;28;20021;-70
2023/06/29 06:37:42;;;;;;;5.78;3.90;;;20.20;99.90;;;;;;5076014;28;20085;-70
2023/06/29 06:40:11;;;;;;;6.93;3.65;;;20.30;99.90;;;;;;5076318;28;20123;-70
2023/06/29 06:42:38;;;;;;;5.63;3.53;;;20.40;99.90;;;;;;5076864;28;20024;-70
2023/06/29 06:45:05;;;;;;;9.25;3.42;;;20.50;99.90;;;;;;5076841;28;20023;-70
2023/06/29 06:47:32;;;;;;;6.35;3.78;;;20.50;99.90;;;;;;5075715;28;20041;-70
2023/06/29 06:49:58;;;;;;;9.82;4.10;;;20.70;99.90;;;;;;5075974;28;20021;-70
2023/06/29 06:52:24;;;;;;;7.10;4.00;;;20.80;99.90;;;;;;5075727;28;20017;-70
2023/06/29 06:54:50;;;;;;;10.52;4.47;;;20.80;99.90;;;;;;5075657;28;20031;-70
2023/06/29 06:57:16;;;;;;;8.75;4.55;;;20.90;99.90;;;;;;5076396;28;20016;-70
2023/06/29 06:59:41;;;;;;;5.40;3.78;;;20.90;99.90;;;;;;5075980;28;20167;-70
2023/06/29 07:02:07;;;;;;;6.75;4.18;;;21.00;99.90;;;;;;5075875;28;20043;-70
2023/06/29 07:04:33;;;;;;;6.07;3.97;;;21.30;99.90;;;;;;5077064;28;20108;-70
2023/06/29 07:06:59;;;;;;;6.53;4.05;;;21.30;99.90;;;;;;5076363;28;20020;-70
2023/06/29 07:09:24;;;;;;;5.60;4.20;;;21.30;99.90;;;;;;5080608;28;20020;-70
2023/06/29 07:11:50;;;;;;;7.97;3.95;;;21.10;99.90;;;;;;5080213;28;20024;-70
2023/06/29 07:14:16;;;;;;;5.15;3.90;;;21.30;99.90;;;;;;5079537;28;20059;-70
2023/06/29 07:16:42;;;;;;;10.45;4.32;;;21.30;99.90;;;;;;5079254;28;20050;-70
2023/06/29 07:19:14;;;;;;;5.88;3.92;;;21.40;99.90;;;;;;5080678;28;20108;-70
2023/06/29 07:21:40;;;;;;;9.40;4.00;;;21.70;99.90;;;;;;5079816;28;20025;-70
2023/06/29 07:24:06;;;;;;;4.68;3.80;;;21.70;99.90;;;;;;5079199;28;20094;-70
2023/06/29 07:26:31;;;;;;;12.32;3.95;;;21.60;99.90;;;;;;5080189;28;20052;-70
2023/06/29 07:28:57;;;;;;;5.78;3.80;;;21.60;99.90;;;;;;5080072;28;20035;-70
2023/06/29 07:31:27;;;;;;;8.63;4.20;;;21.90;99.90;;;;;;5079329;28;20021;-70
2023/06/29 07:33:54;;;;;;;8.40;3.55;;;21.80;99.90;;;;;;5079011;28;20059;-70
2023/06/29 07:36:24;;;;;;;6.45;4.00;;;21.80;99.90;;;;;;5078815;28;20074;-70
2023/06/29 07:38:50;;;;;;;7.07;4.13;;;21.80;99.90;;;;;;5079405;28;20033;-70
2023/06/29 07:41:17;;;;;;;6.18;3.67;;;21.80;99.90;;;;;;5078838;28;20024;-69
2023/06/29 07:43:54;;;;;;;9.45;4.30;;;22.00;99.90;;;;;;5079120;28;20054;-69
2023/06/29 07:46:20;;;;;;;4.75;3.33;;;22.00;99.90;;;;;;5078785;28;20021;-69
2023/06/29 07:48:46;;;;;;;7.70;3.78;;;22.10;99.90;;;;;;5078914;28;20024;-69
2023/06/29 07:51:12;;;;;;;11.15;4.18;;;22.20;99.90;;;;;;5078709;28;20043;-69
2023/06/29 07:53:37;;;;;;;5.72;3.35;;;22.20;99.90;;;;;;5078782;28;20016;-69
2023/06/29 07:56:03;;;;;;;5.97;4.05;;;22.30;99.90;;;;;;5079426;28;20056;-69
2023/06/29 07:58:29;;;;;;;7.72;3.92;;;22.40;99.90;;;;;;5079575;28;20016;-69
2023/06/29 08:00:55;;;;;;;7.82;4.05;;;22.60;99.90;;;;;;5078700;28;20029;-69
2023/06/29 08:03:21;;;;;;;7.70;3.50;;;22.70;99.90;;;;;;5078575;28;20024;-69
2023/06/29 08:05:47;;;;;;;6.45;3.60;;;22.70;99.90;;;;;;5079611;28;20047;-70
2023/06/29 08:08:12;;;;;;;14.15;3.55;;;22.70;99.90;;;;;;5078443;28;20021;-70
2023/06/29 08:10:38;;;;;;;9.00;3.58;;;22.80;99.90;;;;;;5078781;28;20092;-70
2023/06/29 08:13:03;;;;;;;8.32;3.45;;;22.90;99.90;;;;;;5078523;28;20132;-70
2023/06/29 08:15:29;;;;;;;11.38;3.85;;;22.90;99.90;;;;;;5079656;28;20056;-70
2023/06/29 08:17:55;;;;;;;9.57;4.03;;;23.00;99.90;;;;;;5078203;28;20060;-70
2023/06/29 08:20:22;;;;;;;10.48;3.55;;;23.30;99.90;;;;;;5077794;28;20079;-70
2023/06/29 08:22:48;;;;;;;4.28;2.92;;;23.30;99.90;;;;;;5078171;28;20023;-70
2023/06/29 08:25:14;;;;;;;7.80;3.58;;;23.20;99.90;;;;;;5078050;28;20115;-70
2023/06/29 08:27:41;;;;;;;7.50;2.80;;;23.40;99.90;;;;;;5078486;28;20063;-70
2023/06/29 08:30:08;;;;;;;9.32;3.75;;;23.30;99.90;;;;;;5078916;28;20023;-70
2023/06/29 08:32:33;;;;;;;5.57;2.80;;;23.50;99.90;;;;;;5077959;28;20024;-70
2023/06/29 08:34:59;;;;;;;5.65;3.20;;;23.80;99.90;;;;;;5078055;28;20025;-70
2023/06/29 08:37:24;;;;;;;5.30;3.92;;;24.00;99.90;;;;;;5078708;28;20086;-70
2023/06/29 08:39:50;;;;;;;7.93;3.53;;;24.00;99.90;;;;;;5078911;28;20066;-70
2023/06/29 08:42:15;;;;;;;6.13;2.95;;;24.00;99.90;;;;;;5078786;28;20026;-70
2023/06/29 08:44:41;;;;;;;6.40;3.30;;;24.10;99.90;;;;;;5077953;28;20068;-70
2023/06/29 08:47:10;;;;;;;5.55;2.90;;;24.20;99.90;;;;;;5078481;28;20021;-70
2023/06/29 08:49:39;;;;;;;11.30;3.50;;;24.30;99.90;;;;;;5078019;28;20088;-70
2023/06/29 08:52:06;;;;;;;11.23;3.30;;;24.40;99.90;;;;;;5078713;28;20031;-70
2023/06/29 08:54:32;;;;;;;8.15;3.20;;;24.40;99.90;;;;;;5077498;28;20056;-69
2023/06/29 08:57:00;;;;;;;3.92;2.85;;;24.40;99.90;;;;;;5077799;28;20037;-69
2023/06/29 08:59:27;;;;;;;4.80;3.13;;;24.50;99.90;;;;;;5077326;28;20028;-69
2023/06/29 09:01:52;;;;;;;7.45;3.70;;;24.60;99.90;;;;;;5077833;28;20027;-70
2023/06/29 09:04:18;;;;;;;7.57;3.08;;;24.60;99.90;;;;;;5078391;28;20024;-70
2023/06/29 09:06:44;;;;;;;8.50;3.65;;;24.80;99.90;;;;;;5077515;28;20025;-70
2023/06/29 09:09:10;;;;;;;9.68;3.58;;;24.80;99.90;;;;;;5078512;28;20021;-70
2023/06/29 09:11:36;;;;;;;6.18;3.78;;;24.80;99.90;;;;;;5077275;28;20066;-70
2023/06/29 09:14:06;;;;;;;7.40;3.80;;;24.90;99.90;;;;;;5077255;28;20029;-70
2023/06/29 09:16:34;;;;;;;7.43;3.58;;;24.80;99.90;;;;;;5077144;28;20024;-70
2023/06/29 09:19:06;;;;;;;7.22;3.67;;;24.80;99.90;;;;;;5078054;28;20048;-71
2023/06/29 09:21:33;;;;;;;5.72;3.53;;;25.10;99.90;;;;;;5076974;28;20028;-70
2023/06/29 09:23:59;;;;;;;4.93;3.58;;;25.10;99.90;;;;;;5076919;28;20029;-71
2023/06/29 09:26:28;;;;;;;7.47;4.35;;;25.40;99.90;;;;;;5077063;28;20012;-71
2023/06/29 09:29:00;;;;;;;5.22;3.75;;;25.70;99.90;;;;;;5077787;28;20020;-71
2023/06/29 09:31:32;;;;;;;9.57;4.28;;;26.00;99.90;;;;;;5075891;28;20025;-70
2023/06/29 09:34:19;;;;;;;6.22;4.15;;;26.20;99.90;;;;;;5076825;28;20092;-69
2023/06/29 09:36:45;;;;;;;6.93;4.28;;;26.00;99.90;;;;;;5076613;28;20043;-69
2023/06/29 09:39:12;;;;;;;7.47;4.72;;;25.80;99.90;;;;;;5077490;28;20021;-70
2023/06/29 09:42:05;;;;;;;6.45;4.88;;;26.00;99.90;;;;;;5076513;28;20031;-69
2023/06/29 09:44:30;;;;;;;8.95;5.03;;;26.30;99.90;;;;;;5075562;28;20060;-70
2023/06/29 09:47:06;;;;;;;6.07;4.45;;;26.40;99.90;;;;;;5077034;28;20025;-69
2023/06/29 09:49:43;;;;;;;7.78;4.53;;;26.40;99.90;;;;;;5076426;28;20024;-70
2023/06/29 09:52:08;;;;;;;7.72;4.35;;;26.30;99.90;;;;;;5076558;28;20021;-70
2023/06/29 09:54:35;;;;;;;11.88;4.93;;;26.30;99.90;;;;;;5076454;28;20025;-70
2023/06/29 09:57:04;;;;;;;8.25;4.70;;;26.30;99.90;;;;;;5077527;28;20024;-70
2023/06/29 09:59:31;;;;;;;7.53;4.55;;;26.50;99.90;;;;;;5076353;28;20032;-70
2023/06/29 10:01:57;;;;;;;12.68;5.32;;;26.40;99.90;;;;;;5076880;28;20063;-70
2023/06/29 10:04:24;;;;;;;8.82;4.82;;;26.50;99.90;;;;;;5076714;28;20027;-70
2023/06/29 10:06:56;;;;;;;8.75;4.95;;;26.20;99.90;;;;;;5076216;28;20021;-70
2023/06/29 10:09:23;;;;;;;7.65;4.40;;;25.80;99.90;;;;;;5076227;28;20028;-70
2023/06/29 10:11:53;;;;;;;8.07;4.63;;;25.90;99.90;;;;;;5076400;28;20020;-70
2023/06/29 10:14:21;;;;;;;10.93;5.05;;;26.20;99.90;;;;;;5076232;28;20134;-70
2023/06/29 10:16:50;;;;;;;9.25;5.25;;;26.40;99.90;;;;;;5076767;28;20028;-70
2023/06/29 10:19:23;;;;;;;8.93;3.97;;;26.30;99.90;;;;;;5076446;28;20029;-70
2023/06/29 10:21:57;;;;;;;6.97;4.45;;;26.20;99.90;;;;;;5076226;28;20020;-69
2023/06/29 10:24:27;;;;;;;7.85;4.57;;;26.30;99.90;;;;;;5076848;28;20024;-70
2023/06/29 10:26:54;;;;;;;5.90;4.22;;;26.50;99.90;;;;;;5076188;28;20031;-70
2023/06/29 10:29:20;;;;;;;11.05;4.80;;;26.20;99.90;;;;;;5076417;28;20179;-70
2023/06/29 10:31:48;;;;;;;13.00;5.05;;;26.10;99.90;;;;;;5076004;28;20068;-70
2023/06/29 10:34:14;;;;;;;9.02;4.40;;;26.30;99.90;;;;;;5076292;28;20025;-70
2023/06/29 10:36:48;;;;;;;6.28;4.30;;;26.50;99.90;;;;;;5098018;22;20033;-73
2023/06/29 10:39:33;;;;;;;5.97;4.43;;;26.50;99.90;;;;;;5076782;28;20041;-73
2023/06/29 10:41:58;;;;;;;7.07;4.68;;;26.50;99.90;;;;;;5076539;28;20027;-71
2023/06/29 10:44:33;;;;;;;9.88;4.22;;;26.60;99.90;;;;;;5079744;28;20028;-71
2023/06/29 10:46:59;;;;;;;8.45;4.45;;;26.50;99.90;;;;;;5079889;28;20017;-71
2023/06/29 10:49:26;;;;;;;8.60;4.93;;;26.40;99.90;;;;;;5080816;28;20020;-70
2023/06/29 10:52:03;;;;;;;9.25;4.38;;;26.30;99.90;;;;;;5079858;28;20021;-70
2023/06/29 10:54:29;;;;;;;6.97;4.07;;;26.00;99.90;;;;;;5080551;28;20159;-71
2023/06/29 10:57:05;;;;;;;6.18;4.40;;;26.20;99.90;;;;;;5080431;28;20021;-73
2023/06/29 10:59:32;;;;;;;9.43;4.03;;;26.20;99.90;;;;;;5079569;28;20025;-73
2023/06/29 11:01:58;;;;;;;6.90;4.10;;;26.20;99.90;;;;;;5080507;28;20033;-71
2023/06/29 11:04:24;;;;;;;7.75;4.25;;;26.20;99.90;;;;;;5079773;28;20035;-71
2023/06/29 11:06:50;;;;;;;8.32;4.63;;;26.30;99.90;;;;;;5080025;28;20017;-71
2023/06/29 11:09:16;;;;;;;9.93;4.30;;;26.10;99.90;;;;;;5080069;28;20032;-71
2023/06/29 11:11:50;;;;;;;8.63;4.43;;;25.80;99.90;;;;;;5079547;28;20021;-71
2023/06/29 11:14:16;;;;;;;7.95;3.95;;;25.60;99.90;;;;;;5079402;28;20025;-70
2023/06/29 11:16:42;;;;;;;7.63;4.28;;;25.80;99.90;;;;;;5080203;28;20078;-70
2023/06/29 11:19:08;;;;;;;6.50;4.35;;;26.00;99.90;;;;;;5080241;28;20029;-70
2023/06/29 11:21:33;;;;;;;7.50;4.18;;;26.00;99.90;;;;;;5079316;28;20077;-71
2023/06/29 11:23:59;;;;;;;6.75;4.07;;;26.10;99.90;;;;;;5080066;28;20032;-71
2023/06/29 11:26:26;;;;;;;9.30;5.10;;;26.00;99.90;;;;;;5079179;28;20024;-73
2023/06/29 11:28:53;;;;;;;7.68;4.45;;;26.10;99.90;;;;;;5080290;28;20062;-73
2023/06/29 11:31:22;;;;;;;8.93;4.47;;;26.20;99.90;;;;;;5079427;28;20017;-74
2023/06/29 11:33:51;;;;;;;9.75;4.93;;;26.30;99.90;;;;;;5079188;28;20031;-71
2023/06/29 11:36:36;;;;;;;8.23;4.18;;;26.40;99.90;;;;;;5079627;28;20052;-72
2023/06/29 11:39:12;;;;;;;6.63;3.95;;;26.40;99.90;;;;;;5079002;28;20096;-74
2023/06/29 11:41:39;;;;;;;8.20;4.45;;;26.40;99.90;;;;;;5078901;28;20028;-73
2023/06/29 11:44:05;;;;;;;6.18;4.18;;;26.20;99.90;;;;;;5078986;28;20035;-73
2023/06/29 11:46:35;;;;;;;9.23;4.50;;;26.30;99.90;;;;;;5078900;28;20025;-73
2023/06/29 11:49:05;;;;;;;10.68;4.90;;;26.20;99.90;;;;;;5078793;28;20074;-73
2023/06/29 11:51:31;;;;;;;7.07;3.95;;;26.10;99.90;;;;;;5079124;28;20031;-73
2023/06/29 11:53:57;;;;;;;7.53;4.32;;;26.20;99.90;;;;;;5077874;28;20028;-73
2023/06/29 11:56:33;;;;;;;9.82;4.60;;;26.30;99.90;;;;;;5078797;28;20043;-74
2023/06/29 11:59:05;;;;;;;6.60;4.63;;;26.30;99.90;;;;;;5078629;28;20059;-73
2023/06/29 12:01:31;;;;;;;9.63;5.38;;;26.20;99.90;;;;;;5079615;28;20048;-74
2023/06/29 12:03:57;;;;;;;8.50;4.95;;;26.20;99.90;;;;;;5078959;28;20021;-73
2023/06/29 12:06:22;;;;;;;10.27;4.90;;;26.20;99.90;;;;;;5078720;28;20086;-73
2023/06/29 12:08:50;;;;;;;9.38;5.25;;;26.30;99.90;;;;;;5078356;28;20084;-73
2023/06/29 12:11:17;;;;;;;7.03;4.32;;;26.30;99.90;;;;;;5078447;28;20020;-73
2023/06/29 12:13:47;;;;;;;8.25;4.80;;;26.40;99.90;;;;;;5078644;28;20111;-73
2023/06/29 12:16:15;;;;;;;6.67;3.83;;;26.40;99.90;;;;;;5078528;28;20024;-73
2023/06/29 12:18:41;;;;;;;8.48;3.78;;;26.30;99.90;;;;;;5079259;28;20020;-72
2023/06/29 12:21:07;;;;;;;11.88;4.60;;;26.30;99.90;;;;;;5078223;28;20051;-73
2023/06/29 12:23:33;;;;;;;6.13;4.13;;;26.20;99.90;;;;;;5078428;28;20017;-73
2023/06/29 12:25:59;;;;;;;7.60;3.50;;;26.10;99.90;;;;;;5078306;28;20107;-73
2023/06/29 12:28:25;;;;;;;10.52;4.75;;;26.00;99.90;;;;;;5077932;28;20108;-73
2023/06/29 12:30:50;;;;;;;7.55;3.92;;;26.00;99.90;;;;;;5078320;28;20105;-73
2023/06/29 12:33:16;;;;;;;12.88;5.47;;;25.90;99.90;;;;;;5079022;28;20158;-73
2023/06/29 12:35:42;;;;;;;7.80;5.28;;;26.00;99.90;;;;;;5078010;28;20040;-73
2023/06/29 12:38:08;;;;;;;8.73;5.00;;;26.00;99.90;;;;;;5077912;28;20036;-74
2023/06/29 12:40:34;;;;;;;7.95;5.15;;;26.00;99.90;;;;;;5078908;28;20043;-73
2023/06/29 12:43:02;;;;;;;6.97;4.28;;;26.00;99.90;;;;;;5078558;28;20024;-73